createdAt,value
2023-01-26T00:00:51.712Z,21.68
2023-01-26T00:01:55.543Z,21.79
2023-01-26T00:02:58.555Z,21.91
2023-01-26T00:04:01.178Z,22.02
2023-01-26T00:05:06.387Z,22.11
2023-01-26T00:06:11.239Z,22.21
2023-01-26T00:07:13.746Z,22.29
2023-01-26T00:08:16.511Z,22.39
2023-01-26T00:09:19.943Z,22.47
2023-01-26T00:10:22.769Z,22.55
2023-01-26T00:11:27.325Z,22.63
2023-01-26T00:12:30.816Z,22.69
2023-01-26T00:13:33.767Z,22.77
2023-01-26T00:14:38.463Z,22.83
2023-01-26T00:15:41.813Z,22.83
2023-01-26T00:16:44.734Z,22.92
2023-01-26T00:17:50.461Z,22.97
2023-01-26T00:18:53.496Z,23.01
2023-01-26T00:19:57.096Z,23.06
2023-01-26T00:21:00.752Z,23.09
2023-01-26T00:22:03.701Z,23.12
2023-01-26T00:23:06.308Z,23.17
2023-01-26T00:24:08.839Z,23.18
2023-01-26T00:25:11.927Z,23.18
2023-01-26T00:26:16.631Z,23.26
2023-01-26T00:27:19.789Z,23.29
2023-01-26T00:28:22.101Z,23.32
2023-01-26T00:29:24.414Z,23.34
2023-01-26T00:30:28.036Z,23.37
2023-01-26T00:31:30.423Z,23.39
2023-01-26T00:32:36.019Z,23.42
2023-01-26T00:33:38.721Z,23.41
2023-01-26T00:34:42.923Z,23.44
2023-01-26T00:41:11.833Z,23.50
2023-01-26T00:42:15.266Z,23.50
2023-01-26T00:43:17.715Z,23.51
2023-01-26T00:44:20.567Z,23.53
2023-01-26T00:45:22.967Z,23.53
2023-01-26T00:46:26.003Z,23.53
2023-01-26T00:47:29.479Z,23.54
2023-01-26T00:48:32.477Z,23.56
2023-01-26T00:49:35.830Z,23.55
2023-01-26T00:50:38.182Z,23.56
2023-01-26T00:51:41.582Z,23.56
2023-01-26T00:52:43.963Z,23.56
2023-01-26T00:53:46.958Z,23.56
2023-01-26T00:54:49.874Z,23.56
2023-01-26T00:55:54.581Z,23.57
2023-01-26T00:56:57.701Z,23.57
2023-01-26T00:59:11.469Z,23.57
2023-01-26T01:00:16.229Z,23.56
2023-01-26T01:01:19.928Z,23.56
2023-01-26T01:02:22.707Z,23.55
2023-01-26T01:04:29.240Z,23.56
2023-01-26T01:05:31.824Z,23.55
2023-01-26T01:06:34.487Z,23.55
2023-01-26T01:07:37.891Z,23.55
2023-01-26T01:08:41.865Z,23.55
2023-01-26T01:09:45.398Z,23.55
2023-01-26T01:10:48.293Z,23.55
2023-01-26T01:11:50.754Z,23.55
2023-01-26T01:12:53.667Z,23.55
2023-01-26T01:13:57.117Z,23.55
2023-01-26T01:15:00.672Z,23.54
2023-01-26T01:16:07.679Z,23.54
2023-01-26T01:17:10.119Z,23.55
2023-01-26T01:18:13.093Z,23.55
2023-01-26T01:19:17.109Z,23.54
2023-01-26T01:20:20.021Z,23.54
2023-01-26T01:21:23.317Z,23.54
2023-01-26T01:22:25.667Z,23.54
2023-01-26T01:23:29.919Z,23.54
2023-01-26T01:24:33.897Z,23.54
2023-01-26T01:25:37.309Z,23.54
2023-01-26T01:26:40.472Z,23.54
2023-01-26T01:27:43.201Z,23.54
2023-01-26T01:28:46.301Z,23.53
2023-01-26T01:29:50.372Z,23.53
2023-01-26T01:30:52.921Z,23.54
2023-01-26T01:31:55.548Z,23.53
2023-01-26T01:32:58.744Z,23.54
2023-01-26T01:34:01.798Z,23.54
2023-01-26T01:35:06.262Z,23.53
2023-01-26T01:36:12.391Z,23.53
2023-01-26T01:37:15.745Z,23.53
2023-01-26T01:38:19.079Z,23.52
2023-01-26T01:39:21.516Z,23.53
2023-01-26T01:40:23.938Z,23.52
2023-01-26T01:41:26.544Z,23.52
2023-01-26T01:42:29.949Z,23.52
2023-01-26T01:43:32.401Z,23.52
2023-01-26T01:47:00.029Z,23.63
2023-01-26T01:48:04.395Z,23.52
2023-01-26T01:49:19.861Z,23.52
2023-01-26T01:50:22.940Z,23.52
2023-01-26T01:51:38.176Z,23.51
2023-01-26T01:52:40.582Z,23.51
2023-01-26T01:53:44.383Z,23.51
2023-01-26T01:56:07.793Z,23.62
2023-01-26T01:57:17.425Z,23.49
2023-01-26T01:58:20.876Z,23.49
2023-01-26T01:59:23.767Z,23.49
2023-01-26T02:00:26.858Z,23.50
2023-01-26T02:01:29.272Z,23.49
2023-01-26T02:02:31.780Z,23.50
2023-01-26T02:03:34.115Z,23.49
2023-01-26T02:04:36.413Z,23.50
2023-01-26T02:05:45.016Z,23.49
2023-01-26T02:06:52.771Z,23.49
2023-01-26T02:07:56.229Z,23.49
2023-01-26T02:09:01.115Z,23.49
2023-01-26T02:10:20.314Z,23.50
2023-01-26T02:11:27.447Z,23.50
2023-01-26T02:12:30.533Z,23.50
2023-01-26T02:13:33.093Z,23.50
2023-01-26T02:14:35.555Z,23.50
2023-01-26T02:15:37.961Z,23.50
2023-01-26T02:16:40.691Z,23.51
2023-01-26T02:17:43.263Z,23.50
2023-01-26T02:18:46.974Z,23.50
2023-01-26T02:20:18.272Z,23.50
2023-01-26T02:21:22.723Z,23.50
2023-01-26T02:22:29.848Z,23.50
2023-01-26T02:23:36.481Z,23.50
2023-01-26T02:24:39.279Z,23.49
2023-01-26T02:27:04.593Z,23.58
2023-01-26T02:28:09.049Z,23.48
2023-01-26T02:29:11.333Z,23.48
2023-01-26T02:30:17.375Z,23.47
2023-01-26T02:31:20.162Z,23.46
2023-01-26T02:32:23.178Z,23.48
2023-01-26T02:33:28.546Z,23.48
2023-01-26T02:34:33.398Z,23.48
2023-01-26T02:35:36.142Z,23.48
2023-01-26T02:36:39.900Z,23.48
2023-01-26T02:37:42.699Z,23.49
2023-01-26T02:39:04.288Z,23.49
2023-01-26T02:40:18.904Z,23.48
2023-01-26T02:41:40.697Z,23.49
2023-01-26T02:42:44.092Z,23.49
2023-01-26T02:43:47.494Z,23.48
2023-01-26T02:44:50.203Z,23.47
2023-01-26T02:45:53.164Z,23.48
2023-01-26T02:46:57.880Z,23.47
2023-01-26T02:48:02.906Z,23.46
2023-01-26T02:49:24.507Z,23.47
2023-01-26T02:50:28.560Z,23.46
2023-01-26T02:51:30.849Z,23.45
2023-01-26T02:52:35.159Z,23.46
2023-01-26T02:53:42.140Z,23.46
2023-01-26T02:55:04.005Z,23.46
2023-01-26T02:56:07.148Z,23.45
2023-01-26T02:57:10.995Z,23.46
2023-01-26T02:58:14.677Z,23.44
2023-01-26T02:59:17.550Z,23.44
2023-01-26T03:00:25.141Z,23.45
2023-01-26T03:01:27.686Z,23.46
2023-01-26T03:02:30.170Z,23.45
2023-01-26T03:03:42.027Z,23.45
2023-01-26T03:04:44.715Z,23.47
2023-01-26T03:05:49.529Z,23.46
2023-01-26T03:06:52.074Z,23.46
2023-01-26T03:07:54.700Z,23.46
2023-01-26T03:09:00.955Z,23.46
2023-01-26T03:10:05.064Z,23.46
2023-01-26T03:11:09.733Z,23.46
2023-01-26T03:12:13.282Z,23.46
2023-01-26T03:13:16.464Z,23.47
2023-01-26T03:14:19.256Z,23.48
2023-01-26T03:15:40.370Z,23.48
2023-01-26T03:16:43.473Z,23.47
2023-01-26T03:17:46.279Z,23.48
2023-01-26T03:19:04.303Z,23.48
2023-01-26T03:20:27.727Z,23.47
2023-01-26T03:21:48.697Z,23.47
2023-01-26T03:24:29.628Z,23.57
2023-01-26T03:25:50.854Z,23.44
2023-01-26T03:27:12.975Z,23.44
2023-01-26T03:28:15.822Z,23.44
2023-01-26T03:29:19.416Z,23.42
2023-01-26T03:30:23.251Z,23.42
2023-01-26T03:31:26.541Z,23.41
2023-01-26T03:32:30.238Z,23.41
2023-01-26T03:33:34.225Z,23.41
2023-01-26T03:34:36.736Z,23.40
2023-01-26T03:35:40.164Z,23.41
2023-01-26T03:36:42.912Z,23.42
2023-01-26T03:37:48.975Z,23.42
2023-01-26T03:38:53.225Z,23.43
2023-01-26T03:40:15.150Z,23.43
2023-01-26T03:41:37.373Z,23.43
2023-01-26T03:42:58.773Z,23.45
2023-01-26T03:44:22.237Z,23.44
2023-01-26T03:45:44.141Z,23.44
2023-01-26T03:47:04.943Z,23.43
2023-01-26T03:48:30.030Z,23.43
2023-01-26T03:49:51.449Z,23.42
2023-01-26T03:51:13.190Z,23.40
2023-01-26T03:52:33.987Z,23.39
2023-01-26T03:53:56.258Z,23.38
2023-01-26T03:55:18.063Z,23.37
2023-01-26T03:56:23.615Z,23.34
2023-01-26T03:57:29.363Z,23.34
2023-01-26T03:58:33.494Z,23.35
2023-01-26T03:59:38.740Z,23.33
2023-01-26T04:00:49.783Z,23.34
2023-01-26T04:02:10.932Z,23.34
2023-01-26T04:03:32.014Z,23.35
2023-01-26T04:04:54.327Z,23.35
2023-01-26T04:06:17.181Z,23.36
2023-01-26T04:07:41.370Z,23.35
2023-01-26T04:08:46.584Z,23.37
2023-01-26T04:09:49.522Z,23.36
2023-01-26T04:10:54.030Z,23.35
2023-01-26T04:11:56.378Z,23.35
2023-01-26T04:13:17.436Z,23.34
2023-01-26T04:14:49.448Z,23.36
2023-01-26T04:16:06.156Z,23.37
2023-01-26T04:17:27.191Z,23.38
2023-01-26T07:49:47.687Z,20.52
2023-01-26T07:50:50.940Z,20.45
2023-01-26T07:51:53.612Z,20.54
2023-01-26T07:52:56.109Z,20.64
2023-01-26T07:53:59.352Z,20.74
2023-01-26T07:55:02.473Z,20.87
2023-01-26T07:57:19.432Z,21.25
2023-01-26T07:58:22.564Z,21.26
2023-01-26T07:59:27.547Z,21.38
2023-01-26T08:00:29.959Z,21.51
2023-01-26T08:01:33.100Z,21.63
2023-01-26T08:02:36.180Z,21.75
2023-01-26T08:03:39.155Z,21.85
2023-01-26T08:04:41.872Z,21.95
2023-01-26T08:05:46.160Z,22.05
2023-01-26T08:06:51.898Z,22.14
2023-01-26T08:07:59.686Z,22.23
2023-01-26T08:09:02.127Z,22.31
2023-01-26T08:10:05.551Z,22.40
2023-01-26T08:11:08.532Z,22.47
2023-01-26T08:12:10.880Z,22.53
2023-01-26T08:13:17.213Z,22.59
2023-01-26T08:15:34.851Z,22.83
2023-01-26T08:16:38.336Z,22.77
2023-01-26T08:17:41.044Z,22.81
2023-01-26T08:18:45.127Z,22.86
2023-01-26T08:19:47.504Z,22.90
2023-01-26T08:20:53.368Z,22.95
2023-01-26T08:21:57.025Z,22.99
2023-01-26T08:23:00.508Z,23.03
2023-01-26T08:24:04.123Z,23.06
2023-01-26T08:25:08.458Z,23.09
2023-01-26T08:26:13.618Z,23.12
2023-01-26T08:27:16.689Z,23.14
2023-01-26T08:28:21.124Z,23.17
2023-01-26T08:29:23.403Z,23.19
2023-01-26T08:30:27.815Z,23.20
2023-01-26T08:31:32.829Z,23.23
2023-01-26T08:32:36.819Z,23.25
2023-01-26T08:33:40.805Z,23.28
2023-01-26T08:34:44.129Z,23.30
2023-01-26T08:35:48.884Z,23.33
2023-01-26T08:36:52.548Z,23.35
2023-01-26T08:37:55.802Z,23.36
2023-01-26T08:38:59.197Z,23.38
2023-01-26T08:40:02.034Z,23.42
2023-01-26T08:41:07.108Z,23.43
2023-01-26T08:42:12.635Z,23.44
2023-01-26T08:43:16.033Z,23.45
2023-01-26T08:44:20.009Z,23.45
2023-01-26T08:45:22.385Z,23.46
2023-01-26T08:46:26.792Z,23.46
2023-01-26T08:47:29.204Z,23.40
2023-01-26T08:48:32.840Z,23.48
2023-01-26T08:49:36.780Z,23.48
2023-01-26T08:50:40.061Z,23.48
2023-01-26T08:51:42.490Z,23.47
2023-01-26T08:52:44.916Z,23.48
2023-01-26T08:53:47.235Z,23.48
2023-01-26T08:54:49.645Z,23.48
2023-01-26T08:55:52.113Z,23.47
2023-01-26T08:56:54.968Z,23.48
2023-01-26T08:57:58.338Z,23.47
2023-01-26T08:59:01.917Z,23.48
2023-01-26T09:00:05.422Z,23.48
2023-01-26T09:01:10.466Z,23.48
2023-01-26T09:02:13.413Z,23.48
2023-01-26T09:03:17.149Z,23.48
2023-01-26T09:04:19.771Z,23.48
2023-01-26T09:05:23.493Z,23.47
2023-01-26T09:06:29.082Z,23.47
2023-01-26T09:07:31.597Z,23.48
2023-01-26T09:08:34.694Z,23.47
2023-01-26T09:09:37.591Z,23.48
2023-01-26T09:10:40.184Z,23.47
2023-01-26T09:11:42.630Z,23.48
2023-01-26T09:12:46.490Z,23.47
2023-01-26T09:13:57.835Z,23.48
2023-01-26T09:15:00.609Z,23.48
2023-01-26T09:17:19.192Z,23.58
2023-01-26T09:18:24.505Z,23.48
2023-01-26T09:19:30.697Z,23.48
2023-01-26T09:20:32.273Z,23.49
2023-01-26T09:21:34.691Z,23.49
2023-01-26T09:22:38.183Z,23.49
2023-01-26T09:23:42.506Z,23.49
2023-01-26T09:24:44.857Z,23.50
2023-01-26T09:25:53.028Z,23.50
2023-01-26T09:26:55.517Z,23.50
2023-01-26T09:28:00.028Z,23.50
2023-01-26T09:29:03.752Z,23.50
2023-01-26T09:30:10.401Z,23.50
2023-01-26T09:31:13.068Z,23.50
2023-01-26T09:32:15.727Z,23.50
2023-01-26T09:33:18.335Z,23.49
2023-01-26T09:34:20.780Z,23.49
2023-01-26T09:35:24.030Z,23.49
2023-01-26T09:36:26.982Z,23.49
2023-01-26T09:37:29.687Z,23.48
2023-01-26T09:38:33.810Z,23.48
2023-01-26T09:39:36.483Z,23.48
2023-01-26T09:40:46.945Z,23.47
2023-01-26T09:42:02.351Z,23.47
2023-01-26T09:43:14.204Z,23.46
2023-01-26T09:44:20.000Z,23.46
2023-01-26T09:45:35.766Z,23.45
2023-01-26T09:48:13.822Z,23.53
2023-01-26T09:49:26.921Z,23.42
2023-01-26T09:53:10.806Z,23.48
2023-01-26T09:54:28.694Z,23.37
2023-01-26T09:55:31.164Z,23.35
2023-01-26T09:56:35.851Z,23.35
2023-01-26T09:57:50.218Z,23.34
2023-01-26T09:59:08.495Z,23.34
2023-01-26T10:00:21.642Z,23.34
2023-01-26T10:01:31.135Z,23.34
2023-01-26T10:03:07.722Z,23.35
2023-01-26T10:04:23.081Z,23.36
2023-01-26T10:05:30.177Z,23.17
2023-01-26T10:06:34.714Z,23.37
2023-01-26T10:07:39.035Z,23.35
2023-01-26T10:08:42.449Z,23.37
2023-01-26T10:09:47.319Z,23.36
2023-01-26T10:10:53.644Z,23.38
2023-01-26T10:11:57.698Z,23.38
2023-01-26T10:13:00.704Z,23.40
2023-01-26T10:14:23.084Z,23.42
2023-01-26T10:15:32.482Z,23.43
2023-01-26T10:16:35.338Z,23.45
2023-01-26T10:17:41.948Z,23.46
2023-01-26T10:19:02.175Z,23.47
2023-01-26T10:20:26.495Z,23.49
2023-01-26T10:21:32.862Z,23.52
2023-01-26T10:22:46.171Z,23.54
2023-01-26T10:23:49.029Z,23.57
2023-01-26T10:26:47.847Z,23.71
2023-01-26T10:27:50.301Z,23.61
2023-01-26T10:28:52.730Z,23.60
2023-01-26T10:29:55.472Z,23.60
2023-01-26T10:30:59.150Z,23.60
2023-01-26T10:32:01.836Z,23.60
2023-01-26T10:33:06.216Z,23.62
2023-01-26T10:34:25.865Z,23.63
2023-01-26T10:35:28.311Z,23.66
2023-01-26T10:36:31.342Z,23.67
2023-01-26T10:37:33.773Z,23.69
2023-01-26T10:38:41.894Z,23.71
2023-01-26T10:40:07.585Z,23.71
2023-01-26T10:42:19.882Z,23.75
2023-01-26T10:43:22.913Z,23.76
2023-01-26T10:44:33.578Z,23.76
2023-01-26T10:45:39.936Z,23.77
2023-01-26T10:46:42.344Z,23.77
2023-01-26T10:47:45.502Z,23.78
2023-01-26T10:48:53.998Z,23.79
2023-01-26T10:50:21.031Z,23.80
2023-01-26T10:51:29.827Z,23.81
2023-01-26T10:52:33.845Z,23.81
2023-01-26T10:53:37.502Z,23.81
2023-01-26T10:54:42.025Z,23.82
2023-01-26T10:59:46.499Z,23.94
2023-01-26T11:00:57.702Z,23.83
2023-01-26T11:02:13.586Z,23.84
2023-01-26T11:03:19.329Z,23.82
2023-01-26T11:04:22.800Z,23.83
2023-01-26T11:05:26.577Z,23.83
2023-01-26T11:06:31.044Z,23.83
2023-01-26T11:07:44.344Z,23.84
2023-01-26T11:08:47.503Z,23.84
2023-01-26T11:09:53.503Z,23.84
2023-01-26T11:10:57.685Z,23.84
2023-01-26T11:12:02.045Z,23.85
2023-01-26T11:13:14.204Z,23.86
2023-01-26T11:14:18.365Z,23.86
2023-01-26T11:15:24.511Z,23.88
2023-01-26T11:16:29.213Z,23.88
2023-01-26T11:17:40.346Z,23.86
2023-01-26T11:19:08.072Z,23.88
2023-01-26T11:20:47.157Z,23.88
2023-01-26T11:21:53.988Z,23.88
2023-01-26T11:23:23.162Z,23.88
2023-01-26T11:24:28.821Z,23.86
2023-01-26T11:25:44.758Z,23.85
2023-01-26T11:26:52.295Z,23.84
2023-01-26T11:29:54.728Z,23.94
2023-01-26T11:31:07.476Z,23.82
2023-01-26T11:32:23.691Z,23.82
2023-01-26T11:33:51.388Z,23.82
2023-01-26T11:35:17.453Z,23.81
2023-01-26T11:36:29.696Z,23.81
2023-01-26T11:37:44.157Z,23.80
2023-01-26T11:39:07.055Z,23.80
2023-01-26T11:40:41.006Z,23.80
2023-01-26T11:41:56.709Z,23.79
2023-01-26T11:43:37.554Z,23.79
2023-01-26T11:45:09.815Z,23.78
2023-01-26T11:46:37.366Z,23.75
2023-01-26T11:48:02.288Z,23.72
2023-01-26T11:49:17.528Z,23.67
2023-01-26T11:50:39.662Z,23.63
2023-01-26T11:52:09.119Z,23.61
2023-01-26T11:53:18.748Z,23.57
2023-01-26T11:54:30.616Z,23.54
2023-01-26T11:57:08.873Z,23.60
2023-01-26T11:58:15.042Z,23.46
2023-01-26T11:59:21.441Z,23.44
2023-01-26T12:00:30.765Z,23.44
2023-01-26T12:03:04.515Z,23.50
2023-01-26T12:04:13.903Z,23.39
2023-01-26T12:06:38.546Z,23.50
2023-01-26T12:09:42.920Z,23.48
2023-01-26T12:11:06.579Z,23.34
2023-01-26T12:12:19.001Z,23.33
2023-01-26T12:13:37.192Z,23.34
2023-01-26T12:14:44.238Z,23.34
2023-01-26T15:57:08.031Z,20.54
2023-01-26T15:58:10.720Z,20.45
2023-01-26T15:59:13.141Z,20.54
2023-01-26T16:00:16.952Z,20.63
2023-01-26T16:01:22.951Z,20.74
2023-01-26T16:02:32.835Z,20.88
2023-01-26T16:03:38.300Z,21.03
2023-01-26T16:04:41.290Z,21.19
2023-01-26T16:05:46.437Z,21.32
2023-01-26T16:06:48.960Z,21.45
2023-01-26T16:07:52.103Z,21.57
2023-01-26T16:08:55.064Z,21.69
2023-01-26T16:10:00.158Z,21.79
2023-01-26T16:11:05.453Z,21.89
2023-01-26T16:12:30.356Z,22.01
2023-01-26T16:13:20.450Z,22.11
2023-01-26T16:14:23.796Z,22.22
2023-01-26T16:15:39.671Z,22.31
2023-01-26T16:16:42.204Z,22.40
2023-01-26T16:17:44.565Z,22.48
2023-01-26T16:18:46.876Z,22.55
2023-01-26T16:19:49.118Z,22.62
2023-01-26T16:20:52.712Z,22.71
2023-01-26T16:21:56.195Z,22.71
2023-01-26T16:22:58.552Z,22.82
2023-01-26T16:24:02.351Z,22.82
2023-01-26T16:26:26.321Z,23.10
2023-01-26T16:27:29.067Z,23.04
2023-01-26T16:28:31.459Z,23.08
2023-01-26T16:29:34.420Z,23.13
2023-01-26T16:30:37.752Z,23.15
2023-01-26T16:31:42.683Z,23.21
2023-01-26T16:32:45.856Z,23.24
2023-01-26T16:33:49.313Z,23.27
2023-01-26T16:34:52.656Z,23.30
2023-01-26T16:35:55.905Z,23.34
2023-01-26T16:37:00.487Z,23.37
2023-01-26T16:38:04.537Z,23.40
2023-01-26T16:39:06.891Z,23.43
2023-01-26T16:40:10.863Z,23.45
2023-01-26T16:42:34.111Z,23.61
2023-01-26T16:43:39.037Z,23.51
2023-01-26T16:44:42.429Z,23.53
2023-01-26T16:45:45.602Z,23.55
2023-01-26T16:46:49.194Z,23.57
2023-01-26T16:49:10.899Z,23.72
2023-01-26T16:50:16.358Z,23.64
2023-01-26T16:51:23.432Z,23.55
2023-01-26T16:52:26.007Z,23.55
2023-01-26T16:53:35.345Z,23.67
2023-01-26T16:54:37.812Z,23.68
2023-01-26T16:55:40.957Z,23.70
2023-01-26T16:56:44.111Z,23.71
2023-01-26T16:57:49.095Z,23.72
2023-01-26T16:58:51.911Z,23.72
2023-01-26T16:59:54.549Z,23.74
2023-01-26T17:00:57.816Z,23.75
2023-01-26T17:02:01.613Z,23.74
2023-01-26T17:03:06.813Z,23.75
2023-01-26T17:04:14.838Z,23.76
2023-01-26T17:05:19.100Z,23.77
2023-01-26T17:06:23.135Z,23.76
2023-01-26T17:07:25.991Z,23.77
2023-01-26T17:08:29.308Z,23.77
2023-01-26T17:09:32.437Z,23.78
2023-01-26T17:10:35.298Z,23.78
2023-01-26T17:11:37.601Z,23.79
2023-01-26T17:12:41.281Z,23.79
2023-01-26T17:13:45.594Z,23.79
2023-01-26T17:14:50.047Z,23.80
2023-01-26T17:15:52.762Z,23.81
2023-01-26T17:16:55.186Z,23.80
2023-01-26T17:17:58.130Z,23.81
2023-01-26T17:19:01.522Z,23.81
2023-01-26T17:20:17.974Z,23.83
2023-01-26T17:21:11.142Z,23.83
2023-01-26T17:22:14.695Z,23.83
2023-01-26T17:23:18.429Z,23.84
2023-01-26T17:24:22.306Z,23.85
2023-01-26T17:25:24.757Z,23.85
2023-01-26T17:26:27.371Z,23.85
2023-01-26T17:27:30.133Z,23.86
2023-01-26T17:28:34.141Z,23.86
2023-01-26T17:29:37.549Z,23.85
2023-01-26T17:30:40.640Z,23.86
2023-01-26T17:31:43.492Z,23.86
2023-01-26T17:32:45.991Z,23.87
2023-01-26T17:33:49.607Z,23.86
2023-01-26T17:34:53.431Z,23.87
2023-01-26T17:36:05.580Z,23.88
2023-01-26T17:37:08.974Z,23.89
2023-01-26T17:38:12.057Z,23.87
2023-01-26T17:39:15.358Z,23.89
2023-01-26T17:40:18.943Z,23.88
2023-01-26T17:41:21.363Z,23.89
2023-01-26T17:42:25.629Z,23.89
2023-01-26T17:43:28.115Z,23.89
2023-01-26T17:44:31.689Z,23.90
2023-01-26T17:45:36.595Z,23.89
2023-01-26T17:46:40.140Z,23.89
2023-01-26T17:47:43.029Z,23.90
2023-01-26T17:48:46.530Z,23.90
2023-01-26T17:49:50.069Z,23.90
2023-01-26T17:50:53.388Z,23.90
2023-01-26T17:51:57.006Z,23.91
2023-01-26T17:53:00.421Z,23.91
2023-01-26T17:54:05.067Z,23.90
2023-01-26T17:55:09.309Z,23.90
2023-01-26T17:56:14.029Z,23.89
2023-01-26T17:57:16.599Z,23.91
2023-01-26T17:58:18.997Z,23.91
2023-01-26T17:59:22.068Z,23.93
2023-01-26T18:00:26.711Z,23.91
2023-01-26T18:01:32.013Z,23.93
2023-01-26T18:02:37.217Z,23.92
2023-01-26T18:03:41.834Z,23.93
2023-01-26T18:04:44.289Z,23.93
2023-01-26T18:05:53.186Z,23.93
2023-01-26T18:06:55.873Z,23.93
2023-01-26T18:07:58.409Z,23.92
2023-01-26T18:09:00.762Z,23.93
2023-01-26T18:10:04.237Z,23.93
2023-01-26T18:11:08.728Z,23.94
2023-01-26T18:12:11.923Z,23.93
2023-01-26T18:13:15.633Z,23.94
2023-01-26T18:14:18.646Z,23.93
2023-01-26T18:15:22.854Z,23.94
2023-01-26T18:16:25.448Z,23.94
2023-01-26T18:17:27.799Z,23.93
2023-01-26T18:18:31.149Z,23.94
2023-01-26T18:19:33.623Z,23.93
2023-01-26T18:20:36.072Z,23.93
2023-01-26T18:21:38.496Z,23.93
2023-01-26T18:22:41.764Z,23.93
2023-01-26T18:23:45.754Z,23.93
2023-01-26T18:24:48.318Z,23.93
2023-01-26T18:25:51.226Z,23.94
2023-01-26T18:26:55.156Z,23.93
2023-01-26T18:27:57.505Z,23.93
2023-01-26T18:29:00.012Z,23.93
2023-01-26T18:30:05.019Z,23.93
2023-01-26T18:31:09.638Z,23.93
2023-01-26T18:32:12.525Z,23.93
2023-01-26T18:33:15.544Z,23.94
2023-01-26T18:34:18.906Z,23.92
2023-01-26T18:35:21.662Z,23.93
2023-01-26T18:36:24.639Z,23.93
2023-01-26T18:37:27.754Z,23.94
2023-01-26T18:38:31.198Z,23.94
2023-01-26T18:39:33.544Z,23.94
2023-01-26T18:40:40.433Z,23.94
2023-01-26T18:41:45.217Z,23.93
2023-01-26T18:42:48.741Z,23.94
2023-01-26T18:43:52.780Z,23.94
2023-01-26T18:44:57.588Z,23.94
2023-01-26T18:46:01.543Z,23.94
2023-01-26T18:47:04.244Z,23.95
2023-01-26T18:48:06.496Z,23.94
2023-01-26T18:49:10.295Z,23.95
2023-01-26T18:50:13.432Z,23.94
2023-01-26T18:51:17.680Z,23.94
2023-01-26T18:52:20.643Z,23.95
2023-01-26T18:53:23.290Z,23.94
2023-01-26T18:54:25.499Z,23.95
2023-01-26T18:55:29.187Z,23.95
2023-01-26T18:56:31.696Z,23.95
2023-01-26T18:57:36.299Z,23.94
2023-01-26T18:58:40.876Z,23.94
2023-01-26T18:59:44.475Z,23.95
2023-01-26T19:00:47.123Z,23.95
2023-01-26T19:01:50.487Z,23.95
2023-01-26T19:02:52.938Z,23.94
2023-01-26T19:03:58.547Z,23.94
2023-01-26T19:05:01.538Z,23.94
2023-01-26T19:06:06.960Z,23.94
2023-01-26T19:07:09.907Z,23.93
2023-01-26T19:08:14.859Z,23.94
2023-01-26T19:09:17.699Z,23.93
2023-01-26T19:10:20.433Z,23.93
2023-01-26T19:11:23.240Z,23.93
2023-01-26T19:12:25.732Z,23.89
2023-01-26T19:13:28.907Z,23.89
2023-01-26T19:14:34.924Z,23.95
2023-01-26T19:15:37.565Z,23.95
2023-01-26T19:16:42.445Z,23.95
2023-01-26T19:17:45.880Z,23.95
2023-01-26T19:18:50.411Z,23.94
2023-01-26T19:19:53.548Z,23.94
2023-01-26T19:22:10.426Z,24.05
2023-01-26T19:23:14.034Z,23.92
2023-01-26T19:24:17.116Z,23.90
2023-01-26T19:25:21.819Z,23.89
2023-01-26T19:26:28.514Z,23.87
2023-01-26T19:27:31.873Z,23.86
2023-01-26T19:28:35.012Z,23.85
2023-01-26T19:29:41.714Z,23.82
2023-01-26T19:30:45.767Z,23.81
2023-01-26T19:31:49.851Z,23.77
2023-01-26T19:33:10.760Z,23.76
2023-01-26T19:34:16.528Z,23.73
2023-01-26T19:35:21.465Z,23.70
2023-01-26T19:36:26.560Z,23.64
2023-01-26T19:37:29.501Z,23.64
2023-01-26T19:38:32.754Z,23.60
2023-01-26T19:39:36.958Z,23.58
2023-01-26T19:40:39.817Z,23.55
2023-01-26T21:59:10.659Z,20.68
2023-01-26T22:00:14.199Z,20.60
2023-01-26T22:01:17.919Z,20.71
2023-01-26T22:02:21.422Z,20.83
2023-01-26T22:03:24.918Z,20.93
2023-01-26T22:04:29.051Z,21.08
2023-01-26T22:05:31.511Z,21.21
2023-01-26T22:06:35.494Z,21.36
2023-01-26T22:07:37.963Z,21.49
2023-01-26T22:08:41.054Z,21.63
2023-01-26T22:09:45.139Z,21.75
2023-01-26T22:10:56.919Z,21.87
2023-01-26T22:12:00.360Z,21.99
2023-01-26T22:13:03.574Z,22.11
2023-01-26T22:14:07.069Z,22.21
2023-01-26T22:15:13.200Z,22.31
2023-01-26T22:16:16.232Z,22.41
2023-01-26T22:17:19.794Z,22.50
2023-01-26T22:18:22.480Z,22.58
2023-01-26T22:19:26.076Z,22.66
2023-01-26T22:20:29.162Z,22.74
2023-01-26T22:21:32.501Z,22.80
2023-01-26T22:22:34.954Z,22.86
2023-01-26T22:23:38.324Z,22.92
2023-01-26T22:24:41.298Z,22.98
2023-01-26T22:25:44.288Z,23.05
2023-01-26T22:26:47.643Z,23.10
2023-01-26T22:27:50.123Z,23.14
2023-01-26T22:28:53.550Z,23.18
2023-01-26T22:29:58.340Z,23.22
2023-01-26T22:31:04.517Z,23.27
2023-01-26T22:32:09.822Z,23.31
2023-01-26T22:33:12.529Z,23.34
2023-01-26T22:34:16.720Z,23.40
2023-01-26T22:35:20.675Z,23.43
2023-01-26T22:37:38.028Z,23.59
2023-01-26T22:38:41.013Z,23.51
2023-01-26T22:39:43.495Z,23.53
2023-01-26T22:40:47.242Z,23.56
2023-01-26T22:41:52.881Z,23.57
2023-01-26T22:42:56.745Z,23.62
2023-01-26T22:43:59.805Z,23.64
2023-01-26T22:45:02.273Z,23.65
2023-01-26T22:46:06.116Z,23.68
2023-01-26T22:47:09.644Z,23.69
2023-01-26T22:48:13.119Z,23.72
2023-01-26T22:49:16.211Z,23.73
2023-01-26T22:50:18.911Z,23.74
2023-01-26T22:51:23.220Z,23.73
2023-01-26T22:52:25.811Z,23.74
2023-01-26T22:53:29.236Z,23.74
2023-01-26T22:54:32.315Z,23.75
2023-01-26T22:55:34.976Z,23.74
2023-01-26T22:56:38.591Z,23.76
2023-01-26T22:57:40.941Z,23.75
2023-01-26T22:58:57.736Z,23.76
2023-01-26T22:59:51.875Z,23.76
2023-01-26T23:00:54.498Z,23.78
2023-01-26T23:01:56.857Z,23.79
2023-01-26T23:03:02.209Z,23.78
2023-01-26T23:04:05.223Z,23.79
2023-01-26T23:05:08.222Z,23.79
2023-01-26T23:06:12.487Z,23.80
2023-01-26T23:07:14.968Z,23.79
2023-01-26T23:08:17.847Z,23.80
2023-01-26T23:09:20.363Z,23.80
2023-01-26T23:10:24.780Z,23.82
2023-01-26T23:11:29.357Z,23.82
2023-01-26T23:12:32.708Z,23.81
2023-01-26T23:13:35.947Z,23.82
2023-01-26T23:14:39.609Z,23.81
2023-01-26T23:15:42.409Z,23.82
2023-01-26T23:16:44.875Z,23.83
2023-01-26T23:17:51.066Z,23.83
2023-01-26T23:18:54.437Z,23.83
2023-01-26T23:19:56.789Z,23.83
2023-01-26T23:20:59.393Z,23.83
2023-01-26T23:22:02.472Z,23.84
2023-01-26T23:23:04.861Z,23.84
2023-01-26T23:24:08.343Z,23.84
2023-01-26T23:25:29.992Z,23.84
2023-01-26T23:26:32.586Z,23.86
2023-01-26T23:27:36.034Z,23.87
2023-01-26T23:28:40.115Z,23.86
2023-01-26T23:29:43.417Z,23.87
2023-01-26T23:30:46.992Z,23.87
2023-01-26T23:31:50.146Z,23.86
2023-01-26T23:32:52.511Z,23.86
2023-01-26T23:33:56.218Z,23.86
2023-01-26T23:34:59.334Z,23.85
2023-01-26T23:36:04.423Z,23.86
2023-01-26T23:37:07.718Z,23.86
2023-01-26T23:38:11.098Z,23.86
2023-01-26T23:39:16.342Z,23.87
2023-01-26T23:40:20.049Z,23.86
2023-01-26T23:41:23.030Z,23.88
2023-01-26T23:42:25.989Z,23.88
2023-01-26T23:43:28.786Z,23.88
2023-01-26T23:44:32.471Z,23.89
2023-01-26T23:45:35.027Z,23.90
2023-01-26T23:46:38.405Z,23.90
2023-01-26T23:47:41.643Z,23.90
2023-01-26T23:48:44.177Z,23.90
2023-01-26T23:49:48.128Z,23.91
2023-01-26T23:50:58.133Z,23.90
2023-01-26T23:52:00.717Z,23.90
2023-01-26T23:53:03.064Z,23.91
2023-01-26T23:54:06.131Z,23.91
2023-01-26T23:55:09.079Z,23.91
2023-01-26T23:56:15.608Z,23.92
2023-01-26T23:57:18.095Z,23.92
2023-01-26T23:58:20.818Z,23.92
2023-01-26T23:59:23.375Z,23.92
